Time;durP1;ratioP1;P1;durP2;ratioP2;P2;SDS_P1;SDS_P2;PMS_P1;PMS_P2;Temp;Humidity;BMP_temperature;BMP_pressure;BME280_temperature;BME280_humidity;BME280_pressure;Samples;Min_cycle;Max_cycle;Signal;HPM_P1;HPM_P2
2023/03/10 00:01:13;;;;;;;;;;;17.50;61.10;;;;;;5036064;28;989;-69
2023/03/10 00:03:39;;;;;;;;;;;17.40;61.10;;;;;;5065284;28;1516;-69
2023/03/10 00:06:05;;;;;;;;;;;17.40;61.10;;;;;;5037412;28;858;-69
2023/03/10 00:08:30;;;;;;;;;;;17.40;61.10;;;;;;5039087;28;1903;-69
2023/03/10 00:10:56;;;;;;;;;;;17.40;61.10;;;;;;5058492;28;805;-69
2023/03/10 00:13:21;;;;;;;;;;;17.40;61.10;;;;;;5037600;28;1278;-70
2023/03/10 00:15:47;;;;;;;;;;;17.50;61.20;;;;;;5043142;28;1050;-69
2023/03/10 00:18:12;;;;;;;;;;;17.40;61.10;;;;;;5035068;28;1434;-69
2023/03/10 00:20:38;;;;;;;;;;;17.40;61.10;;;;;;5043371;28;928;-70
2023/03/10 00:23:03;;;;;;;;;;;17.40;61.20;;;;;;5042792;28;1272;-70
2023/03/10 00:25:29;;;;;;;;;;;17.40;61.20;;;;;;5043535;28;852;-70
2023/03/10 00:27:54;;;;;;;;;;;17.40;61.10;;;;;;5041612;28;1906;-70
2023/03/10 00:30:20;;;;;;;;;;;17.40;61.20;;;;;;5039187;28;934;-70
2023/03/10 00:32:45;;;;;;;;;;;17.40;61.20;;;;;;5041244;28;1327;-70
2023/03/10 00:35:10;;;;;;;;;;;17.40;61.20;;;;;;5073627;28;836;-70
2023/03/10 00:37:37;;;;;;;;;;;17.40;61.20;;;;;;5043490;28;1256;-70
2023/03/10 00:40:04;;;;;;;;;;;17.40;61.20;;;;;;5040213;28;883;-71
2023/03/10 00:42:29;;;;;;;;;;;17.40;61.20;;;;;;5039370;28;1275;-71
2023/03/10 00:44:54;;;;;;;;;;;17.40;61.20;;;;;;5041600;28;817;-71
2023/03/10 00:47:20;;;;;;;;;;;17.40;61.20;;;;;;5037363;28;1142;-70
2023/03/10 00:49:46;;;;;;;;;;;17.40;61.30;;;;;;5037456;28;1894;-70
2023/03/10 00:52:11;;;;;;;;;;;17.40;61.20;;;;;;5037448;28;1239;-70
2023/03/10 00:54:40;;;;;;;;;;;17.40;61.20;;;;;;5036903;28;829;-70
2023/03/10 00:57:06;;;;;;;;;;;17.40;61.20;;;;;;5038822;28;1354;-70
2023/03/10 00:59:32;;;;;;;;;;;17.40;61.20;;;;;;5035363;28;856;-70
2023/03/10 01:01:57;;;;;;;;;;;17.40;61.20;;;;;;5037274;28;1350;-70
2023/03/10 01:04:23;;;;;;;;;;;17.40;61.20;;;;;;5036990;28;1058;-70
2023/03/10 01:06:48;;;;;;;;;;;17.40;61.30;;;;;;5035939;28;876;-70
2023/03/10 01:09:14;;;;;;;;;;;17.40;61.30;;;;;;5038808;28;1902;-71
2023/03/10 01:11:39;;;;;;;;;;;17.40;61.30;;;;;;5040215;28;1346;-70
2023/03/10 01:14:05;;;;;;;;;;;17.40;61.30;;;;;;5038670;28;931;-70
2023/03/10 01:16:31;;;;;;;;;;;17.40;61.30;;;;;;5039264;28;895;-70
2023/03/10 01:18:56;;;;;;;;;;;17.40;61.30;;;;;;5072354;28;922;-70
2023/03/10 01:21:23;;;;;;;;;;;17.40;61.30;;;;;;5071640;28;800;-71
2023/03/10 01:23:48;;;;;;;;;;;17.40;61.30;;;;;;5042042;28;1204;-70
2023/03/10 01:26:13;;;;;;;;;;;17.40;61.30;;;;;;5037658;28;887;-70
2023/03/10 01:28:39;;;;;;;;;;;17.40;61.30;;;;;;5037807;28;1926;-70
2023/03/10 01:31:06;;;;;;;;;;;17.40;61.30;;;;;;5041269;28;820;-70
2023/03/10 01:33:39;;;;;;;;;;;17.30;61.30;;;;;;5043543;28;1331;-71
2023/03/10 01:36:09;;;;;;;;;;;17.40;61.30;;;;;;5057356;28;1983;-71
2023/03/10 01:38:35;;;;;;;;;;;17.30;61.30;;;;;;5043700;28;1422;-70
2023/03/10 01:41:00;;;;;;;;;;;17.30;61.30;;;;;;5039560;28;874;-69
2023/03/10 01:43:30;;;;;;;;;;;17.30;61.30;;;;;;5039608;28;1316;-69
2023/03/10 01:46:14;;;;;;;;;;;17.40;61.40;;;;;;5037247;28;850;-70
2023/03/10 01:48:39;;;;;;;;;;;17.30;61.30;;;;;;5036211;28;1945;-69
2023/03/10 01:51:05;;;;;;;;;;;17.30;61.30;;;;;;5068862;28;940;-70
2023/03/10 01:53:30;;;;;;;;;;;17.30;61.30;;;;;;5035676;28;1244;-69
2023/03/10 01:56:01;;;;;;;;;;;17.30;61.30;;;;;;5045889;28;855;-69
2023/03/10 01:58:28;;;;;;;;;;;17.40;61.40;;;;;;5049292;28;923;-70
2023/03/10 02:00:53;;;;;;;;;;;17.30;61.30;;;;;;5038654;28;1441;-69
2023/03/10 02:03:22;;;;;;;;;;;17.40;61.40;;;;;;5043392;28;1313;-68
2023/03/10 02:05:49;;;;;;;;;;;17.30;61.30;;;;;;5041676;28;1051;-69
2023/03/10 02:08:14;;;;;;;;;;;17.30;61.30;;;;;;5039066;28;1906;-69
2023/03/10 02:10:40;;;;;;;;;;;17.30;61.30;;;;;;5038564;28;1074;-69
2023/03/10 02:13:05;;;;;;;;;;;17.30;61.30;;;;;;5071981;28;1237;-68
2023/03/10 02:15:31;;;;;;;;;;;17.30;61.40;;;;;;5071241;28;908;-69
2023/03/10 02:17:57;;;;;;;;;;;17.30;61.30;;;;;;5043895;28;994;-72
2023/03/10 02:20:28;;;;;;;;;;;17.30;61.40;;;;;;5044023;28;903;-72
2023/03/10 02:22:53;;;;;;;;;;;17.40;61.40;;;;;;5039735;28;1366;-72
2023/03/10 02:25:29;;;;;;;;;;;17.30;61.40;;;;;;5035888;28;896;-72
2023/03/10 02:27:55;;;;;;;;;;;17.30;61.40;;;;;;5051041;28;1898;-73
2023/03/10 02:30:22;;;;;;;;;;;17.30;61.40;;;;;;5071922;28;895;-68
2023/03/10 02:32:48;;;;;;;;;;;17.30;61.40;;;;;;5046256;28;1270;-70
2023/03/10 02:35:13;;;;;;;;;;;17.40;61.40;;;;;;5075942;28;831;-68
2023/03/10 02:37:39;;;;;;;;;;;17.30;61.40;;;;;;5071094;28;1320;-68
2023/03/10 02:40:28;;;;;;;;;;;17.30;61.40;;;;;;5039069;28;1067;-68
2023/03/10 02:42:53;;;;;;;;;;;17.30;61.40;;;;;;5041156;28;1267;-69
2023/03/10 02:45:19;;;;;;;;;;;17.30;61.40;;;;;;5041144;28;1078;-69
2023/03/10 02:47:44;;;;;;;;;;;17.30;61.40;;;;;;5040140;28;872;-69
2023/03/10 02:50:10;;;;;;;;;;;17.30;61.40;;;;;;5071948;28;1946;-69
2023/03/10 02:52:39;;;;;;;;;;;17.30;61.40;;;;;;5042498;28;1354;-69
2023/03/10 02:55:05;;;;;;;;;;;17.30;61.40;;;;;;5073841;28;1023;-69
2023/03/10 02:57:30;;;;;;;;;;;17.30;61.40;;;;;;5041227;28;1249;-69
2023/03/10 02:59:56;;;;;;;;;;;17.30;61.40;;;;;;5038852;28;915;-70
2023/03/10 03:02:21;;;;;;;;;;;17.30;61.40;;;;;;5039204;28;1391;-69
2023/03/10 03:04:46;;;;;;;;;;;17.30;61.50;;;;;;5039942;28;876;-69
2023/03/10 03:07:12;;;;;;;;;;;17.30;61.50;;;;;;5040584;28;1033;-69
2023/03/10 03:09:37;;;;;;;;;;;17.30;61.50;;;;;;5044250;28;1999;-69
2023/03/10 03:12:03;;;;;;;;;;;17.30;61.50;;;;;;5040617;28;1373;-69
2023/03/10 03:14:28;;;;;;;;;;;17.30;61.40;;;;;;5040948;28;966;-69
2023/03/10 03:16:54;;;;;;;;;;;17.30;61.50;;;;;;5043416;28;1002;-69
2023/03/10 03:19:19;;;;;;;;;;;17.30;61.40;;;;;;5037529;28;916;-68
2023/03/10 03:21:48;;;;;;;;;;;17.30;61.40;;;;;;5041011;28;1349;-69
2023/03/10 03:24:15;;;;;;;;;;;17.30;61.40;;;;;;5038614;28;875;-68
2023/03/10 03:26:41;;;;;;;;;;;17.30;61.40;;;;;;5040710;28;1438;-69
2023/03/10 03:29:09;;;;;;;;;;;17.30;61.50;;;;;;5040809;28;1964;-70
2023/03/10 03:31:34;;;;;;;;;;;17.30;61.40;;;;;;5040161;28;867;-69
2023/03/10 03:34:00;;;;;;;;;;;17.30;61.40;;;;;;5041757;28;1253;-69
2023/03/10 03:36:25;;;;;;;;;;;17.30;61.40;;;;;;5040205;28;1271;-69
2023/03/10 03:38:51;;;;;;;;;;;17.30;61.40;;;;;;5044059;28;1349;-69
2023/03/10 03:41:16;;;;;;;;;;;17.30;61.40;;;;;;5038597;28;862;-68
2023/03/10 03:43:42;;;;;;;;;;;17.30;61.40;;;;;;5038046;28;1226;-68
2023/03/10 03:46:07;;;;;;;;;;;17.30;61.40;;;;;;5042722;28;876;-68
2023/03/10 03:48:33;;;;;;;;;;;17.30;61.50;;;;;;5042455;28;1988;-69
2023/03/10 03:50:59;;;;;;;;;;;17.30;61.40;;;;;;5036728;28;945;-69
2023/03/10 03:53:24;;;;;;;;;;;17.30;61.40;;;;;;5036237;28;1328;-68
2023/03/10 03:55:50;;;;;;;;;;;17.30;61.50;;;;;;5040229;28;999;-69
2023/03/10 03:58:15;;;;;;;;;;;17.30;61.40;;;;;;5038281;28;848;-69
2023/03/10 04:00:41;;;;;;;;;;;17.30;61.40;;;;;;5037437;28;998;-69
2023/03/10 04:03:06;;;;;;;;;;;17.30;61.50;;;;;;5040422;28;1200;-69
2023/03/10 04:05:32;;;;;;;;;;;17.30;61.50;;;;;;5038869;28;1014;-69
2023/03/10 04:07:57;;;;;;;;;;;17.20;61.40;;;;;;5037540;28;1910;-69
2023/03/10 04:10:23;;;;;;;;;;;17.30;61.50;;;;;;5038913;28;839;-69
2023/03/10 04:12:48;;;;;;;;;;;17.30;61.50;;;;;;5038761;28;1318;-68
2023/03/10 04:15:14;;;;;;;;;;;17.30;61.50;;;;;;5036549;28;868;-69
2023/03/10 04:17:39;;;;;;;;;;;17.30;61.50;;;;;;5043949;28;849;-69
2023/03/10 04:20:07;;;;;;;;;;;17.20;61.40;;;;;;5041954;28;871;-68
2023/03/10 04:22:32;;;;;;;;;;;17.30;61.50;;;;;;5048422;28;1322;-70
2023/03/10 04:24:58;;;;;;;;;;;17.30;61.50;;;;;;5038786;28;883;-69
2023/03/10 04:27:23;;;;;;;;;;;17.20;61.40;;;;;;5040436;28;876;-69
2023/03/10 04:29:49;;;;;;;;;;;17.30;61.50;;;;;;5041497;28;1902;-69
2023/03/10 04:32:15;;;;;;;;;;;17.20;61.40;;;;;;5068348;28;1348;-70
2023/03/10 04:34:40;;;;;;;;;;;17.30;61.50;;;;;;5038711;28;1003;-70
2023/03/10 04:37:06;;;;;;;;;;;17.20;61.40;;;;;;5039619;28;1307;-70
2023/03/10 04:39:31;;;;;;;;;;;17.20;61.40;;;;;;5038894;28;844;-70
2023/03/10 04:41:56;;;;;;;;;;;17.20;61.50;;;;;;5039897;28;1268;-69
2023/03/10 04:44:22;;;;;;;;;;;17.20;61.40;;;;;;5037411;28;859;-71
2023/03/10 04:46:47;;;;;;;;;;;17.20;61.50;;;;;;5033404;28;824;-69
2023/03/10 04:49:14;;;;;;;;;;;17.20;61.50;;;;;;5044040;28;1902;-69
2023/03/10 04:51:40;;;;;;;;;;;17.30;61.50;;;;;;5039425;28;1239;-70
2023/03/10 04:54:05;;;;;;;;;;;17.30;61.50;;;;;;5037549;28;773;-70
2023/03/10 04:56:30;;;;;;;;;;;17.20;61.50;;;;;;5041603;28;1239;-70
2023/03/10 04:58:56;;;;;;;;;;;17.30;61.60;;;;;;5046102;28;931;-69
2023/03/10 05:01:21;;;;;;;;;;;17.20;61.50;;;;;;5033791;28;876;-69
2023/03/10 05:03:47;;;;;;;;;;;17.30;61.50;;;;;;5039229;28;1268;-69
2023/03/10 05:06:14;;;;;;;;;;;17.30;61.60;;;;;;5034937;28;2076;-70
2023/03/10 05:08:39;;;;;;;;;;;17.20;61.50;;;;;;5036841;28;1935;-69
2023/03/10 05:11:05;;;;;;;;;;;17.30;61.50;;;;;;5038491;28;1468;-67
2023/03/10 05:13:31;;;;;;;;;;;17.30;61.40;;;;;;5038551;28;1532;-68
2023/03/10 05:15:56;;;;;;;;;;;17.30;61.40;;;;;;5039119;28;961;-68
2023/03/10 05:18:22;;;;;;;;;;;17.30;61.20;;;;;;5025538;28;922;-68
2023/03/10 05:20:51;;;;;;;;;;;17.30;61.10;;;;;;5036850;28;800;-68
2023/03/10 05:23:17;;;;;;;;;;;17.40;61.10;;;;;;5042302;28;1311;-68
2023/03/10 05:25:42;;;;;;;;;;;17.40;61.00;;;;;;5037719;28;1022;-68
2023/03/10 05:28:07;;;;;;;;;;;17.50;60.90;;;;;;5039840;28;1894;-67
2023/03/10 05:30:33;;;;;;;;;;;17.50;60.70;;;;;;5038046;28;875;-67
2023/03/10 05:32:58;;;;;;;;;;;17.50;60.60;;;;;;5042285;28;1233;-67
2023/03/10 05:35:24;;;;;;;;;;;17.50;60.50;;;;;;5037603;28;951;-68
2023/03/10 05:37:49;;;;;;;;;;;17.60;60.40;;;;;;5040563;28;1324;-68
2023/03/10 05:40:17;;;;;;;;;;;17.60;60.40;;;;;;5038488;28;924;-68
2023/03/10 05:42:42;;;;;;;;;;;17.60;60.20;;;;;;5037699;28;1388;-68
2023/03/10 05:45:09;;;;;;;;;;;17.60;60.10;;;;;;5040695;28;860;-68
2023/03/10 05:47:34;;;;;;;;;;;17.70;60.10;;;;;;5037161;28;884;-68
2023/03/10 05:50:00;;;;;;;;;;;17.60;60.00;;;;;;5041898;28;1960;-68
2023/03/10 05:52:25;;;;;;;;;;;17.70;60.00;;;;;;5043002;28;1256;-67
2023/03/10 05:54:51;;;;;;;;;;;17.70;59.90;;;;;;5039224;28;1863;-67
2023/03/10 05:57:16;;;;;;;;;;;17.70;59.90;;;;;;5042155;28;1019;-69
2023/03/10 05:59:42;;;;;;;;;;;17.70;59.80;;;;;;5037221;28;981;-69
2023/03/10 06:02:07;;;;;;;;;;;17.80;59.80;;;;;;5037453;28;1258;-68
2023/03/10 06:04:33;;;;;;;;;;;17.70;59.80;;;;;;5039082;28;943;-68
2023/03/10 06:07:01;;;;;;;;;;;17.80;59.80;;;;;;5053186;28;1325;-68
2023/03/10 06:09:27;;;;;;;;;;;17.80;59.80;;;;;;5040464;28;1890;-68
2023/03/10 06:11:53;;;;;;;;;;;17.80;59.70;;;;;;5047965;28;1259;-68
2023/03/10 06:14:18;;;;;;;;;;;17.80;59.70;;;;;;5039199;28;959;-67
2023/03/10 06:16:49;;;;;;;;;;;17.80;59.70;;;;;;5056056;28;1139;-67
2023/03/10 06:19:18;;;;;;;;;;;17.80;59.70;;;;;;5038958;28;1170;-69
2023/03/10 06:21:43;;;;;;;;;;;17.80;59.70;;;;;;5069215;28;1231;-67
2023/03/10 06:24:09;;;;;;;;;;;17.80;59.70;;;;;;5040614;28;1186;-67
2023/03/10 06:26:34;;;;;;;;;;;17.80;59.70;;;;;;5037786;28;856;-68
2023/03/10 06:29:00;;;;;;;;;;;17.80;59.70;;;;;;5037380;28;1952;-67
2023/03/10 06:31:25;;;;;;;;;;;17.80;59.70;;;;;;5042920;28;1491;-68
2023/03/10 06:33:51;;;;;;;;;;;17.80;59.70;;;;;;5039935;28;1342;-68
2023/03/10 06:36:16;;;;;;;;;;;17.80;59.70;;;;;;5039329;28;1368;-68
2023/03/10 06:38:42;;;;;;;;;;;17.80;59.70;;;;;;5072626;28;967;-68
2023/03/10 06:41:07;;;;;;;;;;;17.80;59.70;;;;;;5037346;28;963;-68
2023/03/10 06:43:33;;;;;;;;;;;17.80;59.70;;;;;;5043179;28;1359;-67
2023/03/10 06:45:58;;;;;;;;;;;17.70;59.70;;;;;;5042269;28;845;-67
2023/03/10 06:48:24;;;;;;;;;;;17.80;59.70;;;;;;5040667;28;1895;-67
2023/03/10 06:50:49;;;;;;;;;;;17.80;59.80;;;;;;5039291;28;879;-67
2023/03/10 06:53:16;;;;;;;;;;;17.70;59.70;;;;;;5071406;28;1331;-66
2023/03/10 06:55:41;;;;;;;;;;;17.70;59.70;;;;;;5072956;28;879;-66
2023/03/10 06:58:07;;;;;;;;;;;17.80;59.80;;;;;;5074645;28;896;-68
2023/03/10 07:00:32;;;;;;;;;;;17.80;59.80;;;;;;5041972;28;875;-69
2023/03/10 07:02:58;;;;;;;;;;;17.80;59.80;;;;;;5040718;28;1280;-69
2023/03/10 07:05:25;;;;;;;;;;;17.70;59.80;;;;;;5074887;28;874;-69
2023/03/10 07:07:51;;;;;;;;;;;17.70;59.80;;;;;;5072185;28;868;-69
2023/03/10 07:10:17;;;;;;;;;;;17.70;59.80;;;;;;5040827;28;1906;-69
2023/03/10 07:12:42;;;;;;;;;;;17.70;59.80;;;;;;5041769;28;1374;-69
2023/03/10 07:15:08;;;;;;;;;;;17.70;59.90;;;;;;5039212;28;812;-69
2023/03/10 07:17:34;;;;;;;;;;;17.70;59.90;;;;;;5037895;28;834;-68
2023/03/10 07:19:59;;;;;;;;;;;17.70;59.90;;;;;;5036129;28;1707;-67
2023/03/10 07:22:25;;;;;;;;;;;17.70;59.90;;;;;;5040979;28;1375;-73
2023/03/10 07:24:52;;;;;;;;;;;17.70;60.00;;;;;;5038013;28;1101;-71
2023/03/10 07:27:18;;;;;;;;;;;17.70;60.00;;;;;;5037964;28;904;-69
2023/03/10 07:29:43;;;;;;;;;;;17.70;60.00;;;;;;5040308;28;1890;-68
2023/03/10 07:32:09;;;;;;;;;;;17.70;60.00;;;;;;5039739;28;1263;-68
2023/03/10 07:34:34;;;;;;;;;;;17.70;60.00;;;;;;5041395;28;875;-70
2023/03/10 07:37:00;;;;;;;;;;;17.70;60.10;;;;;;5041684;28;1362;-67
2023/03/10 07:39:25;;;;;;;;;;;17.70;60.00;;;;;;5041374;28;808;-68
2023/03/10 07:41:51;;;;;;;;;;;17.70;60.10;;;;;;5040384;28;1254;-70
2023/03/10 07:44:16;;;;;;;;;;;17.60;60.10;;;;;;5039970;28;957;-69
2023/03/10 07:46:42;;;;;;;;;;;17.60;60.10;;;;;;5039814;28;891;-68
2023/03/10 07:49:07;;;;;;;;;;;17.60;60.10;;;;;;5075736;28;1898;-70
2023/03/10 07:51:33;;;;;;;;;;;17.60;60.10;;;;;;5042311;28;838;-69
2023/03/10 07:53:59;;;;;;;;;;;17.60;60.20;;;;;;5040101;28;1277;-69
2023/03/10 07:56:24;;;;;;;;;;;17.60;60.20;;;;;;5038661;28;844;-70
2023/03/10 07:58:49;;;;;;;;;;;17.60;60.20;;;;;;5043658;28;907;-70
2023/03/10 08:01:16;;;;;;;;;;;17.60;60.20;;;;;;5044145;28;1014;-68
2023/03/10 08:03:42;;;;;;;;;;;17.60;60.20;;;;;;5041123;28;1365;-68
2023/03/10 08:06:07;;;;;;;;;;;17.60;60.30;;;;;;5038298;28;1042;-68
2023/03/10 08:08:33;;;;;;;;;;;17.60;60.30;;;;;;5040108;28;1902;-69
2023/03/10 08:11:02;;;;;;;;;;;17.60;60.30;;;;;;5042500;28;852;-68
2023/03/10 08:13:28;;;;;;;;;;;17.60;60.30;;;;;;5041902;28;1365;-67
2023/03/10 08:15:53;;;;;;;;;;;17.60;60.30;;;;;;5038832;28;941;-69
2023/03/10 08:18:19;;;;;;;;;;;17.60;60.30;;;;;;5030525;28;889;-68
2023/03/10 08:20:44;;;;;;;;;;;17.60;60.30;;;;;;5039571;28;883;-68
2023/03/10 08:23:09;;;;;;;;;;;17.60;60.40;;;;;;5045438;28;1346;-69
2023/03/10 08:25:36;;;;;;;;;;;17.60;60.40;;;;;;5039355;28;1006;-69
2023/03/10 08:28:01;;;;;;;;;;;17.60;60.40;;;;;;5039037;28;1902;-68
2023/03/10 08:30:27;;;;;;;;;;;17.60;60.40;;;;;;5037914;28;947;-68
2023/03/10 08:32:52;;;;;;;;;;;17.60;60.40;;;;;;5040209;28;1274;-67
2023/03/10 08:35:18;;;;;;;;;;;17.60;60.50;;;;;;5040858;28;850;-68
2023/03/10 08:37:43;;;;;;;;;;;17.60;60.50;;;;;;5037029;28;1061;-68
2023/03/10 08:40:10;;;;;;;;;;;17.60;60.50;;;;;;5039809;28;812;-68
2023/03/10 08:42:36;;;;;;;;;;;17.50;60.40;;;;;;5040310;28;1350;-68
2023/03/10 08:45:01;;;;;;;;;;;17.50;60.50;;;;;;5040288;28;910;-68
2023/03/10 08:47:27;;;;;;;;;;;17.50;60.50;;;;;;5036362;28;842;-68
2023/03/10 08:49:52;;;;;;;;;;;17.50;60.50;;;;;;5041421;28;1961;-68
2023/03/10 08:52:18;;;;;;;;;;;17.50;60.40;;;;;;5041497;28;1208;-68
2023/03/10 08:54:43;;;;;;;;;;;17.50;60.40;;;;;;5036870;28;848;-67
2023/03/10 08:57:09;;;;;;;;;;;17.60;60.40;;;;;;5036970;28;1065;-68
2023/03/10 08:59:34;;;;;;;;;;;17.60;60.40;;;;;;5042057;28;900;-68
2023/03/10 09:02:00;;;;;;;;;;;17.60;60.30;;;;;;5028321;28;1200;-67
2023/03/10 09:04:26;;;;;;;;;;;17.60;60.30;;;;;;5041807;28;875;-68
2023/03/10 09:06:51;;;;;;;;;;;17.60;60.30;;;;;;5041480;28;938;-67
2023/03/10 09:09:17;;;;;;;;;;;17.60;60.20;;;;;;5071824;28;1950;-68
2023/03/10 09:11:42;;;;;;;;;;;17.60;60.20;;;;;;5047226;28;1274;-68
2023/03/10 09:14:08;;;;;;;;;;;17.60;60.10;;;;;;5055955;28;1346;-68
2023/03/10 09:16:34;;;;;;;;;;;17.70;60.10;;;;;;5069786;28;990;-68
2023/03/10 09:18:59;;;;;;;;;;;17.70;60.10;;;;;;5040668;28;878;-68
2023/03/10 09:21:25;;;;;;;;;;;17.60;60.00;;;;;;5072051;28;875;-68
2023/03/10 09:23:51;;;;;;;;;;;17.70;60.00;;;;;;5040378;28;1308;-68
2023/03/10 09:26:17;;;;;;;;;;;17.60;60.00;;;;;;5036862;28;916;-67
2023/03/10 09:28:42;;;;;;;;;;;17.70;60.00;;;;;;5069631;28;1961;-68
2023/03/10 09:31:08;;;;;;;;;;;17.70;60.70;;;;;;5041155;28;942;-68
2023/03/10 09:33:33;;;;;;;;;;;17.70;60.00;;;;;;5046663;28;1365;-68
2023/03/10 09:36:01;;;;;;;;;;;17.70;60.00;;;;;;5036217;28;948;-67
2023/03/10 09:38:26;;;;;;;;;;;17.70;59.90;;;;;;5071157;28;1139;-68
2023/03/10 09:41:03;;;;;;;;;;;17.70;59.90;;;;;;5039635;28;855;-68
2023/03/10 09:43:29;;;;;;;;;;;17.70;59.90;;;;;;5038906;28;1231;-68
2023/03/10 09:45:54;;;;;;;;;;;17.70;59.90;;;;;;5073538;28;1050;-68
2023/03/10 09:48:29;;;;;;;;;;;17.70;59.90;;;;;;5036940;28;1972;-68
2023/03/10 09:50:55;;;;;;;;;;;17.70;59.80;;;;;;5039310;28;895;-68
2023/03/10 09:53:39;;;;;;;;;;;17.70;59.80;;;;;;5038243;28;1356;-68
2023/03/10 09:56:09;;;;;;;;;;;17.70;59.80;;;;;;5041333;28;1086;-67
2023/03/10 09:58:39;;;;;;;;;;;17.70;59.80;;;;;;5073632;28;807;-69
2023/03/10 10:01:04;;;;;;;;;;;17.70;59.80;;;;;;5038935;28;1014;-69
2023/03/10 10:03:31;;;;;;;;;;;17.70;59.80;;;;;;5039356;28;1257;-68
2023/03/10 10:05:57;;;;;;;;;;;17.80;59.80;;;;;;5062511;28;1277;-69
2023/03/10 10:08:24;;;;;;;;;;;17.70;59.80;;;;;;5069404;28;1902;-69
2023/03/10 10:10:51;;;;;;;;;;;17.80;59.80;;;;;;5069420;28;883;-69
2023/03/10 10:13:16;;;;;;;;;;;17.80;59.80;;;;;;5036815;28;1280;-69
2023/03/10 10:16:04;;;;;;;;;;;17.70;59.70;;;;;;5037712;28;812;-68
2023/03/10 10:18:31;;;;;;;;;;;17.80;59.80;;;;;;5041620;28;919;-69
2023/03/10 10:21:20;;;;;;;;;;;17.80;59.70;;;;;;5076263;28;828;-68
2023/03/10 10:23:49;;;;;;;;;;;17.80;59.80;;;;;;5039849;28;1343;-69
2023/03/10 10:26:18;;;;;;;;;;;17.80;59.70;;;;;;5040530;28;855;-68
2023/03/10 10:29:05;;;;;;;;;;;17.80;59.70;;;;;;5042360;28;1906;-68
2023/03/10 10:31:31;;;;;;;;;;;17.80;59.70;;;;;;5041302;28;1272;-69
2023/03/10 10:34:00;;;;;;;;;;;17.80;59.70;;;;;;5045273;28;1169;-68
2023/03/10 10:36:35;;;;;;;;;;;17.80;59.70;;;;;;5041918;28;1295;-69
2023/03/10 10:39:01;;;;;;;;;;;17.80;59.70;;;;;;5043480;28;856;-70
2023/03/10 10:41:27;;;;;;;;;;;17.80;59.70;;;;;;5044175;28;780;-69
2023/03/10 10:43:54;;;;;;;;;;;17.80;59.60;;;;;;5043966;28;1305;-69
2023/03/10 10:46:24;;;;;;;;;;;17.80;59.60;;;;;;5039712;28;1002;-68
2023/03/10 10:48:58;;;;;;;;;;;17.80;59.60;;;;;;5042700;28;1898;-69
2023/03/10 10:51:27;;;;;;;;;;;17.80;59.60;;;;;;5041148;28;891;-69
2023/03/10 10:54:00;;;;;;;;;;;17.80;59.50;;;;;;5048778;28;1373;-69
2023/03/10 10:56:27;;;;;;;;;;;17.80;59.50;;;;;;5042301;28;896;-69
2023/03/10 10:59:00;;;;;;;;;;;17.80;59.50;;;;;;5043138;28;864;-69
2023/03/10 11:01:25;;;;;;;;;;;17.80;59.50;;;;;;5077135;28;835;-68
2023/03/10 11:04:02;;;;;;;;;;;17.90;59.60;;;;;;5072194;28;1310;-69
2023/03/10 11:06:28;;;;;;;;;;;17.80;59.50;;;;;;5039913;28;910;-69
2023/03/10 11:09:11;;;;;;;;;;;17.80;59.50;;;;;;5040166;28;1961;-68
2023/03/10 11:11:55;;;;;;;;;;;17.90;59.60;;;;;;5043645;28;839;-69
2023/03/10 11:14:32;;;;;;;;;;;17.90;59.60;;;;;;5039890;28;1364;-67
2023/03/10 11:17:10;;;;;;;;;;;17.90;59.60;;;;;;5042043;28;890;-68
2023/03/10 11:19:55;;;;;;;;;;;17.80;59.60;;;;;;5053341;28;1403;-69
2023/03/10 11:22:22;;;;;;;;;;;17.80;59.60;;;;;;5070473;28;1300;-68
2023/03/10 11:24:53;;;;;;;;;;;17.80;59.60;;;;;;5041841;28;885;-69
2023/03/10 11:27:25;;;;;;;;;;;17.80;59.60;;;;;;5035732;28;819;-67
2023/03/10 11:29:50;;;;;;;;;;;17.80;59.80;;;;;;5040207;28;1943;-69
2023/03/10 11:32:18;;;;;;;;;;;17.80;59.90;;;;;;5042915;28;1266;-69
2023/03/10 11:34:50;;;;;;;;;;;17.80;59.80;;;;;;5042936;28;1333;-70
2023/03/10 11:37:31;;;;;;;;;;;17.80;59.70;;;;;;5042376;28;1240;-68
2023/03/10 11:40:06;;;;;;;;;;;17.80;59.80;;;;;;5041726;28;908;-68
2023/03/10 11:42:50;;;;;;;;;;;17.80;60.00;;;;;;5041759;28;1280;-69
2023/03/10 11:45:22;;;;;;;;;;;17.80;59.90;;;;;;5038323;28;943;-69
2023/03/10 11:47:47;;;;;;;;;;;17.80;59.90;;;;;;5041540;28;871;-69
2023/03/10 11:50:28;;;;;;;;;;;17.80;59.90;;;;;;5042075;28;1921;-69
2023/03/10 11:52:56;;;;;;;;;;;17.80;60.00;;;;;;5037957;28;1263;-69
2023/03/10 11:55:22;;;;;;;;;;;17.80;60.00;;;;;;5072146;28;847;-70
2023/03/10 11:57:48;;;;;;;;;;;17.80;60.00;;;;;;5041044;28;808;-69
2023/03/10 12:00:20;;;;;;;;;;;17.70;59.90;;;;;;5027045;28;872;-69
2023/03/10 12:02:46;;;;;;;;;;;17.80;60.00;;;;;;5029590;28;1442;-69
2023/03/10 12:05:19;;;;;;;;;;;17.80;60.00;;;;;;5043068;28;844;-69
2023/03/10 12:07:45;;;;;;;;;;;17.80;60.00;;;;;;5039437;28;872;-69
2023/03/10 12:10:11;;;;;;;;;;;17.70;60.10;;;;;;5071899;28;1910;-70
2023/03/10 12:12:37;;;;;;;;;;;17.70;60.00;;;;;;5042090;28;1292;-71
2023/03/10 12:15:12;;;;;;;;;;;17.70;60.10;;;;;;5037646;28;1102;-70
2023/03/10 12:17:37;;;;;;;;;;;17.70;60.10;;;;;;5038796;28;852;-69
2023/03/10 12:20:10;;;;;;;;;;;17.70;60.10;;;;;;5036862;28;2233;-70
2023/03/10 12:22:37;;;;;;;;;;;17.70;60.10;;;;;;5044489;28;1734;-69
2023/03/10 12:25:03;;;;;;;;;;;17.70;60.10;;;;;;5072528;28;1275;-68
2023/03/10 12:27:29;;;;;;;;;;;17.70;60.20;;;;;;5037946;28;1797;-69
2023/03/10 12:29:54;;;;;;;;;;;17.70;60.20;;;;;;5037607;28;1898;-69
2023/03/10 12:32:40;;;;;;;;;;;17.70;60.20;;;;;;5041248;28;1492;-69
2023/03/10 12:35:32;;;;;;;;;;;17.70;60.20;;;;;;5070574;28;1013;-69
2023/03/10 12:38:16;;;;;;;;;;;17.70;60.20;;;;;;5040789;28;1442;-69
2023/03/10 12:40:46;;;;;;;;;;;17.70;60.30;;;;;;5036375;28;982;-69
2023/03/10 12:43:30;;;;;;;;;;;17.70;60.30;;;;;;5039482;28;1884;-69
2023/03/10 12:45:55;;;;;;;;;;;17.70;60.30;;;;;;5041793;28;860;-69
2023/03/10 12:48:21;;;;;;;;;;;17.70;60.30;;;;;;5037277;28;1957;-69
2023/03/10 12:50:46;;;;;;;;;;;17.70;60.40;;;;;;5032780;28;955;-69
2023/03/10 12:53:26;;;;;;;;;;;17.60;60.30;;;;;;5037729;28;1271;-69
2023/03/10 12:56:24;;;;;;;;;;;17.60;60.30;;;;;;5025335;28;1270;-69
2023/03/10 12:58:57;;;;;;;;;;;17.60;60.30;;;;;;5043134;28;1126;-69
2023/03/10 13:01:23;;;;;;;;;;;17.60;60.40;;;;;;5035239;28;813;-70
2023/03/10 13:03:49;;;;;;;;;;;17.60;60.40;;;;;;5036976;28;1354;-70
2023/03/10 13:06:20;;;;;;;;;;;17.60;60.40;;;;;;5036511;28;940;-71
2023/03/10 13:08:48;;;;;;;;;;;17.60;60.40;;;;;;5037999;28;1906;-71
2023/03/10 13:11:17;;;;;;;;;;;17.60;61.20;;;;;;5045330;28;1011;-70
2023/03/10 13:13:42;;;;;;;;;;;17.60;60.50;;;;;;5040131;28;1279;-69
2023/03/10 13:16:15;;;;;;;;;;;17.60;60.50;;;;;;5039051;28;935;-68
2023/03/10 13:18:44;;;;;;;;;;;17.60;60.50;;;;;;5038163;28;970;-68
2023/03/10 13:21:22;;;;;;;;;;;17.60;60.50;;;;;;5070839;28;919;-68
2023/03/10 13:23:48;;;;;;;;;;;17.60;60.50;;;;;;5041253;28;1292;-68
2023/03/10 13:26:14;;;;;;;;;;;17.60;60.60;;;;;;5037344;28;1346;-68
2023/03/10 13:28:39;;;;;;;;;;;17.60;60.60;;;;;;5037229;28;1899;-70
2023/03/10 13:31:13;;;;;;;;;;;17.60;60.60;;;;;;5070212;28;1446;-70
2023/03/10 13:33:39;;;;;;;;;;;17.60;60.60;;;;;;5038975;28;1311;-71
2023/03/10 13:36:20;;;;;;;;;;;17.60;60.60;;;;;;5038349;28;1965;-71
2023/03/10 13:38:46;;;;;;;;;;;17.50;60.60;;;;;;5044772;28;1266;-71
2023/03/10 13:41:12;;;;;;;;;;;17.50;60.60;;;;;;5040735;28;1027;-71
2023/03/10 13:43:38;;;;;;;;;;;17.50;60.60;;;;;;5039881;28;1266;-71
2023/03/10 13:46:08;;;;;;;;;;;17.50;60.70;;;;;;5074695;28;843;-71
2023/03/10 13:48:33;;;;;;;;;;;17.50;60.70;;;;;;5027674;28;1918;-70
2023/03/10 13:51:18;;;;;;;;;;;17.50;60.70;;;;;;5070954;28;797;-71
2023/03/10 13:53:44;;;;;;;;;;;17.50;60.80;;;;;;5048619;28;1262;-71
2023/03/10 13:56:17;;;;;;;;;;;17.50;60.80;;;;;;5042742;28;872;-70
2023/03/10 13:58:42;;;;;;;;;;;17.50;60.80;;;;;;5076376;28;828;-70
2023/03/10 14:01:11;;;;;;;;;;;17.50;60.80;;;;;;5059740;28;1131;-70
2023/03/10 14:03:37;;;;;;;;;;;17.50;60.80;;;;;;5072614;28;1334;-69
2023/03/10 14:06:11;;;;;;;;;;;17.50;60.80;;;;;;5040908;28;889;-70
2023/03/10 14:08:36;;;;;;;;;;;17.50;60.80;;;;;;5038930;28;1985;-70
2023/03/10 14:11:21;;;;;;;;;;;17.50;60.80;;;;;;5043420;28;920;-70
2023/03/10 14:13:46;;;;;;;;;;;17.50;60.90;;;;;;5038992;28;1265;-70
2023/03/10 14:16:12;;;;;;;;;;;17.50;60.90;;;;;;5051084;28;794;-70
2023/03/10 14:18:38;;;;;;;;;;;17.50;60.90;;;;;;5042837;28;1007;-69
2023/03/10 14:21:38;;;;;;;;;;;17.50;60.90;;;;;;5040965;28;1201;-70
2023/03/10 14:24:04;;;;;;;;;;;17.50;60.90;;;;;;5032535;28;1407;-69
2023/03/10 14:26:29;;;;;;;;;;;17.50;60.90;;;;;;5045958;28;887;-69
2023/03/10 14:28:55;;;;;;;;;;;17.50;60.90;;;;;;5073590;28;1898;-70
2023/03/10 14:31:21;;;;;;;;;;;17.50;60.90;;;;;;5039682;28;895;-70
2023/03/10 14:33:47;;;;;;;;;;;17.50;60.90;;;;;;5075770;28;1270;-70
2023/03/10 14:36:12;;;;;;;;;;;17.50;60.90;;;;;;5074950;28;877;-72
2023/03/10 14:38:38;;;;;;;;;;;17.50;60.90;;;;;;5037281;28;1418;-71